sensor_id;sensor_type;location;lat;lon;timestamp;P1;durP1;ratioP1;P2;durP2;ratioP2
22429;SDS011;11382;48.086;11.632;2024-03-23T00:55:09;3.92;;;2.28;;
22429;SDS011;11382;48.086;11.632;2024-03-23T00:57:35;3.58;;;2.40;;
22429;SDS011;11382;48.086;11.632;2024-03-23T01:00:02;2.97;;;2.20;;
22429;SDS011;11382;48.086;11.632;2024-03-23T01:02:31;2.13;;;1.80;;
22429;SDS011;11382;48.086;11.632;2024-03-23T01:04:58;4.47;;;2.30;;
22429;SDS011;11382;48.086;11.632;2024-03-23T01:07:24;2.33;;;2.10;;
22429;SDS011;11382;48.086;11.632;2024-03-23T01:09:51;3.80;;;1.90;;
22429;SDS011;11382;48.086;11.632;2024-03-23T01:12:19;4.10;;;2.45;;
22429;SDS011;11382;48.086;11.632;2024-03-23T01:14:47;3.92;;;2.22;;
22429;SDS011;11382;48.086;11.632;2024-03-23T01:17:13;2.65;;;2.08;;
22429;SDS011;11382;48.086;11.632;2024-03-23T01:19:40;3.05;;;2.13;;
22429;SDS011;11382;48.086;11.632;2024-03-23T01:22:06;4.15;;;2.30;;
22429;SDS011;11382;48.086;11.632;2024-03-23T01:24:35;5.53;;;2.53;;
22429;SDS011;11382;48.086;11.632;2024-03-23T01:27:01;3.70;;;2.35;;
22429;SDS011;11382;48.086;11.632;2024-03-23T01:29:30;3.03;;;2.03;;
22429;SDS011;11382;48.086;11.632;2024-03-23T01:31:56;7.22;;;2.65;;
22429;SDS011;11382;48.086;11.632;2024-03-23T01:34:23;4.07;;;2.35;;
22429;SDS011;11382;48.086;11.632;2024-03-23T01:36:50;2.70;;;2.20;;
22429;SDS011;11382;48.086;11.632;2024-03-23T01:39:17;3.40;;;2.30;;
22429;SDS011;11382;48.086;11.632;2024-03-23T01:41:43;3.58;;;2.28;;
22429;SDS011;11382;48.086;11.632;2024-03-23T01:44:11;2.80;;;2.05;;
22429;SDS011;11382;48.086;11.632;2024-03-23T01:46:38;4.13;;;2.60;;
22429;SDS011;11382;48.086;11.632;2024-03-23T01:49:06;3.00;;;2.47;;
22429;SDS011;11382;48.086;11.632;2024-03-23T01:51:33;2.72;;;2.20;;
22429;SDS011;11382;48.086;11.632;2024-03-23T01:54:01;3.53;;;2.35;;
22429;SDS011;11382;48.086;11.632;2024-03-23T01:56:28;2.28;;;2.08;;
22429;SDS011;11382;48.086;11.632;2024-03-23T01:58:55;3.45;;;2.13;;
22429;SDS011;11382;48.086;11.632;2024-03-23T02:01:22;3.30;;;2.15;;
22429;SDS011;11382;48.086;11.632;2024-03-23T02:03:50;4.35;;;2.00;;
22429;SDS011;11382;48.086;11.632;2024-03-23T02:06:16;3.83;;;2.05;;
22429;SDS011;11382;48.086;11.632;2024-03-23T02:08:43;3.00;;;1.85;;
22429;SDS011;11382;48.086;11.632;2024-03-23T02:11:09;2.97;;;2.05;;
22429;SDS011;11382;48.086;11.632;2024-03-23T02:13:36;3.35;;;2.25;;
22429;SDS011;11382;48.086;11.632;2024-03-23T02:16:04;3.60;;;2.20;;
22429;SDS011;11382;48.086;11.632;2024-03-23T02:18:31;4.43;;;2.10;;
22429;SDS011;11382;48.086;11.632;2024-03-23T02:20:59;3.78;;;2.17;;
22429;SDS011;11382;48.086;11.632;2024-03-23T02:23:28;2.67;;;2.17;;
22429;SDS011;11382;48.086;11.632;2024-03-23T02:25:54;3.85;;;1.98;;
22429;SDS011;11382;48.086;11.632;2024-03-23T02:28:21;3.67;;;2.40;;
22429;SDS011;11382;48.086;11.632;2024-03-23T02:30:48;2.45;;;2.03;;
22429;SDS011;11382;48.086;11.632;2024-03-23T02:33:15;4.93;;;2.60;;
22429;SDS011;11382;48.086;11.632;2024-03-23T02:35:41;3.30;;;2.22;;
22429;SDS011;11382;48.086;11.632;2024-03-23T02:38:08;7.03;;;2.40;;
22429;SDS011;11382;48.086;11.632;2024-03-23T02:40:36;3.75;;;2.10;;
22429;SDS011;11382;48.086;11.632;2024-03-23T02:43:03;4.53;;;2.55;;
22429;SDS011;11382;48.086;11.632;2024-03-23T02:45:29;4.18;;;2.20;;
22429;SDS011;11382;48.086;11.632;2024-03-23T02:47:57;3.33;;;2.30;;
22429;SDS011;11382;48.086;11.632;2024-03-23T02:50:23;3.08;;;2.53;;
22429;SDS011;11382;48.086;11.632;2024-03-23T02:52:50;3.78;;;2.10;;
22429;SDS011;11382;48.086;11.632;2024-03-23T02:55:16;3.60;;;2.00;;
22429;SDS011;11382;48.086;11.632;2024-03-23T02:57:44;3.33;;;2.42;;
22429;SDS011;11382;48.086;11.632;2024-03-23T03:00:11;3.30;;;2.17;;
22429;SDS011;11382;48.086;11.632;2024-03-23T03:02:38;3.33;;;2.58;;
22429;SDS011;11382;48.086;11.632;2024-03-23T03:05:05;3.88;;;2.40;;
22429;SDS011;11382;48.086;11.632;2024-03-23T03:07:34;2.65;;;2.20;;
22429;SDS011;11382;48.086;11.632;2024-03-23T03:10:00;2.88;;;2.13;;
22429;SDS011;11382;48.086;11.632;2024-03-23T03:12:27;3.30;;;1.98;;
22429;SDS011;11382;48.086;11.632;2024-03-23T03:14:54;2.70;;;2.20;;
22429;SDS011;11382;48.086;11.632;2024-03-23T03:17:22;2.15;;;1.95;;
22429;SDS011;11382;48.086;11.632;2024-03-23T03:19:48;2.85;;;2.00;;
22429;SDS011;11382;48.086;11.632;2024-03-23T03:22:20;7.28;;;2.10;;
22429;SDS011;11382;48.086;11.632;2024-03-23T03:24:47;3.00;;;2.25;;
22429;SDS011;11382;48.086;11.632;2024-03-23T03:27:14;4.07;;;2.38;;
22429;SDS011;11382;48.086;11.632;2024-03-23T03:29:40;2.30;;;2.10;;
22429;SDS011;11382;48.086;11.632;2024-03-23T03:32:08;2.80;;;2.10;;
22429;SDS011;11382;48.086;11.632;2024-03-23T03:34:34;3.03;;;1.90;;
22429;SDS011;11382;48.086;11.632;2024-03-23T03:37:01;2.47;;;1.90;;
22429;SDS011;11382;48.086;11.632;2024-03-23T03:39:27;3.35;;;2.05;;
22429;SDS011;11382;48.086;11.632;2024-03-23T03:41:54;3.13;;;1.88;;
22429;SDS011;11382;48.086;11.632;2024-03-23T03:44:20;2.67;;;1.90;;
22429;SDS011;11382;48.086;11.632;2024-03-23T03:46:47;3.33;;;2.25;;
22429;SDS011;11382;48.086;11.632;2024-03-23T03:49:15;2.38;;;1.65;;
22429;SDS011;11382;48.086;11.632;2024-03-23T03:51:42;2.40;;;1.70;;
22429;SDS011;11382;48.086;11.632;2024-03-23T03:54:08;2.58;;;1.55;;
22429;SDS011;11382;48.086;11.632;2024-03-23T03:56:35;2.80;;;1.90;;
22429;SDS011;11382;48.086;11.632;2024-03-23T03:59:01;1.63;;;1.42;;
22429;SDS011;11382;48.086;11.632;2024-03-23T04:01:28;2.60;;;1.75;;
22429;SDS011;11382;48.086;11.632;2024-03-23T04:03:54;2.70;;;1.90;;
22429;SDS011;11382;48.086;11.632;2024-03-23T04:06:22;2.33;;;1.85;;
22429;SDS011;11382;48.086;11.632;2024-03-23T04:08:49;3.17;;;1.80;;
22429;SDS011;11382;48.086;11.632;2024-03-23T04:11:16;4.53;;;1.50;;
22429;SDS011;11382;48.086;11.632;2024-03-23T04:13:42;3.42;;;1.67;;
22429;SDS011;11382;48.086;11.632;2024-03-23T04:16:09;3.03;;;1.70;;
22429;SDS011;11382;48.086;11.632;2024-03-23T04:18:35;2.58;;;1.90;;
22429;SDS011;11382;48.086;11.632;2024-03-23T04:21:03;3.58;;;1.67;;
22429;SDS011;11382;48.086;11.632;2024-03-23T04:23:30;3.90;;;1.90;;
22429;SDS011;11382;48.086;11.632;2024-03-23T04:26:02;3.47;;;1.90;;
22429;SDS011;11382;48.086;11.632;2024-03-23T04:28:29;2.33;;;1.88;;
22429;SDS011;11382;48.086;11.632;2024-03-23T04:30:56;1.50;;;1.40;;
22429;SDS011;11382;48.086;11.632;2024-03-23T04:33:22;2.85;;;1.98;;
22429;SDS011;11382;48.086;11.632;2024-03-23T04:35:49;3.33;;;1.67;;
22429;SDS011;11382;48.086;11.632;2024-03-23T04:38:15;2.53;;;1.58;;
22429;SDS011;11382;48.086;11.632;2024-03-23T04:40:44;2.03;;;1.63;;
22429;SDS011;11382;48.086;11.632;2024-03-23T04:43:11;2.58;;;1.48;;
22429;SDS011;11382;48.086;11.632;2024-03-23T04:45:38;4.13;;;1.60;;
22429;SDS011;11382;48.086;11.632;2024-03-23T04:48:05;2.22;;;1.52;;
22429;SDS011;11382;48.086;11.632;2024-03-23T04:50:32;3.72;;;1.60;;
22429;SDS011;11382;48.086;11.632;2024-03-23T04:52:59;2.97;;;1.77;;
22429;SDS011;11382;48.086;11.632;2024-03-23T04:55:26;2.63;;;1.60;;
22429;SDS011;11382;48.086;11.632;2024-03-23T04:57:55;4.13;;;1.80;;
22429;SDS011;11382;48.086;11.632;2024-03-23T05:00:22;1.55;;;1.40;;
22429;SDS011;11382;48.086;11.632;2024-03-23T05:02:48;2.00;;;1.50;;
22429;SDS011;11382;48.086;11.632;2024-03-23T05:05:15;3.45;;;1.52;;
22429;SDS011;11382;48.086;11.632;2024-03-23T05:07:41;2.75;;;1.52;;
22429;SDS011;11382;48.086;11.632;2024-03-23T05:10:09;2.10;;;1.50;;
22429;SDS011;11382;48.086;11.632;2024-03-23T05:12:36;2.88;;;1.45;;
22429;SDS011;11382;48.086;11.632;2024-03-23T05:15:05;5.32;;;1.60;;
22429;SDS011;11382;48.086;11.632;2024-03-23T05:17:33;1.98;;;1.35;;
22429;SDS011;11382;48.086;11.632;2024-03-23T05:20:01;2.53;;;1.30;;
22429;SDS011;11382;48.086;11.632;2024-03-23T05:22:28;4.20;;;1.60;;
22429;SDS011;11382;48.086;11.632;2024-03-23T05:24:56;1.45;;;1.30;;
22429;SDS011;11382;48.086;11.632;2024-03-23T05:27:22;1.88;;;1.50;;
22429;SDS011;11382;48.086;11.632;2024-03-23T05:29:49;1.90;;;1.60;;
22429;SDS011;11382;48.086;11.632;2024-03-23T05:32:16;2.20;;;1.38;;
22429;SDS011;11382;48.086;11.632;2024-03-23T05:34:43;2.03;;;1.48;;
22429;SDS011;11382;48.086;11.632;2024-03-23T05:37:10;2.60;;;1.40;;
22429;SDS011;11382;48.086;11.632;2024-03-23T05:39:37;2.22;;;1.42;;
22429;SDS011;11382;48.086;11.632;2024-03-23T05:42:03;3.25;;;1.70;;
22429;SDS011;11382;48.086;11.632;2024-03-23T05:44:30;1.50;;;1.40;;
22429;SDS011;11382;48.086;11.632;2024-03-23T05:46:56;2.72;;;1.60;;
22429;SDS011;11382;48.086;11.632;2024-03-23T05:49:25;2.50;;;1.30;;
22429;SDS011;11382;48.086;11.632;2024-03-23T05:51:51;2.03;;;1.33;;
22429;SDS011;11382;48.086;11.632;2024-03-23T05:54:20;2.15;;;1.52;;
22429;SDS011;11382;48.086;11.632;2024-03-23T05:56:46;1.92;;;1.35;;
22429;SDS011;11382;48.086;11.632;2024-03-23T05:59:13;3.20;;;1.25;;
22429;SDS011;11382;48.086;11.632;2024-03-23T06:01:39;1.33;;;1.20;;
22429;SDS011;11382;48.086;11.632;2024-03-23T06:04:06;1.45;;;1.33;;
22429;SDS011;11382;48.086;11.632;2024-03-23T06:06:34;2.42;;;1.17;;
22429;SDS011;11382;48.086;11.632;2024-03-23T06:09:01;2.25;;;1.30;;
22429;SDS011;11382;48.086;11.632;2024-03-23T06:11:27;2.30;;;1.20;;
22429;SDS011;11382;48.086;11.632;2024-03-23T06:13:54;1.40;;;1.13;;
22429;SDS011;11382;48.086;11.632;2024-03-23T06:16:21;2.55;;;1.30;;
22429;SDS011;11382;48.086;11.632;2024-03-23T06:18:50;2.08;;;1.50;;
22429;SDS011;11382;48.086;11.632;2024-03-23T06:21:16;5.55;;;1.45;;
22429;SDS011;11382;48.086;11.632;2024-03-23T06:23:44;2.95;;;1.50;;
22429;SDS011;11382;48.086;11.632;2024-03-23T06:26:16;1.95;;;1.30;;
22429;SDS011;11382;48.086;11.632;2024-03-23T06:28:43;2.55;;;1.30;;
22429;SDS011;11382;48.086;11.632;2024-03-23T06:31:09;1.38;;;1.05;;
22429;SDS011;11382;48.086;11.632;2024-03-23T06:33:37;1.30;;;1.13;;
22429;SDS011;11382;48.086;11.632;2024-03-23T06:36:04;1.73;;;1.08;;
22429;SDS011;11382;48.086;11.632;2024-03-23T06:38:31;1.10;;;0.95;;
22429;SDS011;11382;48.086;11.632;2024-03-23T06:40:59;0.93;;;0.90;;
22429;SDS011;11382;48.086;11.632;2024-03-23T06:43:28;3.17;;;1.10;;
22429;SDS011;11382;48.086;11.632;2024-03-23T06:45:55;1.20;;;1.08;;
22429;SDS011;11382;48.086;11.632;2024-03-23T06:48:22;1.50;;;1.10;;
22429;SDS011;11382;48.086;11.632;2024-03-23T06:50:49;2.47;;;1.20;;
22429;SDS011;11382;48.086;11.632;2024-03-23T06:53:16;1.80;;;1.15;;
22429;SDS011;11382;48.086;11.632;2024-03-23T06:55:42;3.03;;;1.17;;
22429;SDS011;11382;48.086;11.632;2024-03-23T06:58:18;1.20;;;1.00;;
22429;SDS011;11382;48.086;11.632;2024-03-23T07:00:44;1.85;;;1.08;;
22429;SDS011;11382;48.086;11.632;2024-03-23T07:03:13;1.73;;;1.02;;
22429;SDS011;11382;48.086;11.632;2024-03-23T07:05:39;1.23;;;1.00;;
22429;SDS011;11382;48.086;11.632;2024-03-23T07:08:06;1.85;;;1.02;;
22429;SDS011;11382;48.086;11.632;2024-03-23T07:10:32;2.33;;;1.10;;
22429;SDS011;11382;48.086;11.632;2024-03-23T07:12:59;1.77;;;1.27;;
22429;SDS011;11382;48.086;11.632;2024-03-23T07:15:26;1.20;;;1.10;;
22429;SDS011;11382;48.086;11.632;2024-03-23T07:17:53;2.50;;;1.30;;
22429;SDS011;11382;48.086;11.632;2024-03-23T07:20:20;2.17;;;1.20;;
22429;SDS011;11382;48.086;11.632;2024-03-23T07:22:47;2.72;;;1.27;;
22429;SDS011;11382;48.086;11.632;2024-03-23T07:25:13;2.88;;;1.20;;
22429;SDS011;11382;48.086;11.632;2024-03-23T07:27:40;1.63;;;1.10;;
22429;SDS011;11382;48.086;11.632;2024-03-23T07:30:06;2.33;;;1.08;;
22429;SDS011;11382;48.086;11.632;2024-03-23T07:32:36;3.72;;;1.15;;
22429;SDS011;11382;48.086;11.632;2024-03-23T07:35:02;2.13;;;1.30;;
22429;SDS011;11382;48.086;11.632;2024-03-23T07:37:29;2.05;;;1.40;;
22429;SDS011;11382;48.086;11.632;2024-03-23T07:39:56;3.38;;;1.50;;
22429;SDS011;11382;48.086;11.632;2024-03-23T07:42:25;2.35;;;1.40;;
22429;SDS011;11382;48.086;11.632;2024-03-23T07:44:51;1.65;;;1.35;;
22429;SDS011;11382;48.086;11.632;2024-03-23T07:47:20;2.63;;;1.60;;
22429;SDS011;11382;48.086;11.632;2024-03-23T07:49:47;4.00;;;1.80;;
22429;SDS011;11382;48.086;11.632;2024-03-23T07:52:14;2.80;;;1.75;;
22429;SDS011;11382;48.086;11.632;2024-03-23T07:54:40;3.45;;;2.05;;
22429;SDS011;11382;48.086;11.632;2024-03-23T07:57:08;3.38;;;2.10;;
22429;SDS011;11382;48.086;11.632;2024-03-23T07:59:34;2.05;;;1.50;;
22429;SDS011;11382;48.086;11.632;2024-03-23T08:02:01;2.55;;;1.80;;
22429;SDS011;11382;48.086;11.632;2024-03-23T08:04:27;2.53;;;1.73;;
22429;SDS011;11382;48.086;11.632;2024-03-23T08:06:56;3.47;;;1.40;;
22429;SDS011;11382;48.086;11.632;2024-03-23T08:09:22;4.47;;;1.52;;
22429;SDS011;11382;48.086;11.632;2024-03-23T08:11:49;2.13;;;1.40;;
22429;SDS011;11382;48.086;11.632;2024-03-23T08:14:15;2.33;;;1.55;;
22429;SDS011;11382;48.086;11.632;2024-03-23T08:16:42;3.55;;;1.35;;
22429;SDS011;11382;48.086;11.632;2024-03-23T08:19:13;3.17;;;1.60;;
22429;SDS011;11382;48.086;11.632;2024-03-23T08:21:41;2.10;;;1.63;;
22429;SDS011;11382;48.086;11.632;2024-03-23T08:24:08;2.97;;;1.98;;
22429;SDS011;11382;48.086;11.632;2024-03-23T08:26:35;3.80;;;1.85;;
22429;SDS011;11382;48.086;11.632;2024-03-23T08:29:03;4.45;;;1.98;;
22429;SDS011;11382;48.086;11.632;2024-03-23T08:31:30;3.47;;;1.58;;
22429;SDS011;11382;48.086;11.632;2024-03-23T08:33:56;3.33;;;1.98;;
22429;SDS011;11382;48.086;11.632;2024-03-23T08:36:23;4.70;;;1.85;;
22429;SDS011;11382;48.086;11.632;2024-03-23T08:38:50;4.90;;;2.00;;
22429;SDS011;11382;48.086;11.632;2024-03-23T08:41:20;2.78;;;2.08;;
22429;SDS011;11382;48.086;11.632;2024-03-23T08:43:46;3.13;;;2.38;;
22429;SDS011;11382;48.086;11.632;2024-03-23T08:46:14;4.88;;;2.15;;
22429;SDS011;11382;48.086;11.632;2024-03-23T08:48:41;5.75;;;1.90;;
22429;SDS011;11382;48.086;11.632;2024-03-23T08:51:11;4.10;;;2.20;;
22429;SDS011;11382;48.086;11.632;2024-03-23T08:53:38;2.28;;;1.85;;
22429;SDS011;11382;48.086;11.632;2024-03-23T08:56:06;4.47;;;2.00;;
22429;SDS011;11382;48.086;11.632;2024-03-23T08:58:34;3.88;;;2.60;;
22429;SDS011;11382;48.086;11.632;2024-03-23T09:01:03;3.92;;;2.70;;
22429;SDS011;11382;48.086;11.632;2024-03-23T09:03:30;2.92;;;2.45;;
22429;SDS011;11382;48.086;11.632;2024-03-23T09:05:57;4.55;;;2.42;;
22429;SDS011;11382;48.086;11.632;2024-03-23T09:08:24;4.35;;;2.70;;
22429;SDS011;11382;48.086;11.632;2024-03-23T09:10:51;4.88;;;2.88;;
22429;SDS011;11382;48.086;11.632;2024-03-23T09:13:17;4.30;;;2.78;;
22429;SDS011;11382;48.086;11.632;2024-03-23T09:15:47;3.50;;;2.47;;
22429;SDS011;11382;48.086;11.632;2024-03-23T09:18:13;6.35;;;2.70;;
22429;SDS011;11382;48.086;11.632;2024-03-23T09:20:41;5.07;;;2.60;;
22429;SDS011;11382;48.086;11.632;2024-03-23T09:23:07;3.10;;;2.40;;
22429;SDS011;11382;48.086;11.632;2024-03-23T09:25:36;5.90;;;2.97;;
22429;SDS011;11382;48.086;11.632;2024-03-23T09:28:02;3.95;;;2.50;;
22429;SDS011;11382;48.086;11.632;2024-03-23T09:30:30;3.92;;;2.60;;
22429;SDS011;11382;48.086;11.632;2024-03-23T09:32:58;4.10;;;2.65;;
22429;SDS011;11382;48.086;11.632;2024-03-23T09:35:26;4.25;;;2.40;;
22429;SDS011;11382;48.086;11.632;2024-03-23T09:37:52;3.28;;;2.63;;
22429;SDS011;11382;48.086;11.632;2024-03-23T09:40:19;5.05;;;2.75;;
22429;SDS011;11382;48.086;11.632;2024-03-23T09:42:49;1.90;;;1.52;;
22429;SDS011;11382;48.086;11.632;2024-03-23T09:45:17;4.13;;;1.60;;
22429;SDS011;11382;48.086;11.632;2024-03-23T09:47:46;2.00;;;1.38;;
22429;SDS011;11382;48.086;11.632;2024-03-23T09:50:15;2.55;;;1.65;;
22429;SDS011;11382;48.086;11.632;2024-03-23T09:52:41;1.63;;;1.30;;
22429;SDS011;11382;48.086;11.632;2024-03-23T09:55:08;2.22;;;1.48;;
22429;SDS011;11382;48.086;11.632;2024-03-23T09:57:35;1.90;;;1.55;;
22429;SDS011;11382;48.086;11.632;2024-03-23T10:00:02;3.05;;;1.42;;
22429;SDS011;11382;48.086;11.632;2024-03-23T10:02:32;3.55;;;1.30;;
22429;SDS011;11382;48.086;11.632;2024-03-23T10:04:59;1.98;;;1.30;;
22429;SDS011;11382;48.086;11.632;2024-03-23T10:07:27;3.30;;;1.73;;
22429;SDS011;11382;48.086;11.632;2024-03-23T10:09:55;3.85;;;1.33;;
22429;SDS011;11382;48.086;11.632;2024-03-23T10:12:22;2.92;;;1.00;;
22429;SDS011;11382;48.086;11.632;2024-03-23T10:14:50;1.13;;;0.88;;
22429;SDS011;11382;48.086;11.632;2024-03-23T10:17:17;0.82;;;0.73;;
22429;SDS011;11382;48.086;11.632;2024-03-23T10:19:45;0.75;;;0.70;;
22429;SDS011;11382;48.086;11.632;2024-03-23T10:22:13;2.78;;;0.93;;
22429;SDS011;11382;48.086;11.632;2024-03-23T10:24:42;0.50;;;0.50;;
22429;SDS011;11382;48.086;11.632;2024-03-23T10:27:08;1.33;;;0.80;;
22429;SDS011;11382;48.086;11.632;2024-03-23T10:29:35;1.58;;;0.85;;
22429;SDS011;11382;48.086;11.632;2024-03-23T10:32:08;0.77;;;0.75;;
22429;SDS011;11382;48.086;11.632;2024-03-23T10:34:36;0.85;;;0.70;;
22429;SDS011;11382;48.086;11.632;2024-03-23T10:37:03;1.90;;;0.90;;
22429;SDS011;11382;48.086;11.632;2024-03-23T10:39:32;0.85;;;0.70;;
22429;SDS011;11382;48.086;11.632;2024-03-23T10:42:01;1.50;;;0.73;;
22429;SDS011;11382;48.086;11.632;2024-03-23T10:44:30;1.00;;;0.80;;
22429;SDS011;11382;48.086;11.632;2024-03-23T10:46:57;1.30;;;0.77;;
22429;SDS011;11382;48.086;11.632;2024-03-23T10:49:28;0.77;;;0.73;;
22429;SDS011;11382;48.086;11.632;2024-03-23T10:51:56;0.85;;;0.60;;
22429;SDS011;11382;48.086;11.632;2024-03-23T10:54:24;2.50;;;0.75;;
22429;SDS011;11382;48.086;11.632;2024-03-23T10:56:51;0.80;;;0.80;;
22429;SDS011;11382;48.086;11.632;2024-03-23T10:59:24;1.23;;;0.70;;
22429;SDS011;11382;48.086;11.632;2024-03-23T11:01:55;1.35;;;0.63;;
22429;SDS011;11382;48.086;11.632;2024-03-23T11:04:32;2.35;;;0.90;;
22429;SDS011;11382;48.086;11.632;2024-03-23T11:06:59;0.70;;;0.60;;
22429;SDS011;11382;48.086;11.632;2024-03-23T11:09:38;1.33;;;0.60;;
22429;SDS011;11382;48.086;11.632;2024-03-23T11:12:17;2.47;;;1.02;;
22429;SDS011;11382;48.086;11.632;2024-03-23T11:14:53;0.55;;;0.45;;
22429;SDS011;11382;48.086;11.632;2024-03-23T11:17:22;1.10;;;0.40;;
22429;SDS011;11382;48.086;11.632;2024-03-23T11:19:52;0.93;;;0.50;;
22429;SDS011;11382;48.086;11.632;2024-03-23T11:25:11;1.30;;;0.50;;
22429;SDS011;11382;48.086;11.632;2024-03-23T11:27:38;0.70;;;0.70;;
22429;SDS011;11382;48.086;11.632;2024-03-23T11:30:14;1.83;;;0.70;;
22429;SDS011;11382;48.086;11.632;2024-03-23T11:32:41;1.02;;;0.80;;
22429;SDS011;11382;48.086;11.632;2024-03-23T11:35:09;1.13;;;0.60;;
22429;SDS011;11382;48.086;11.632;2024-03-23T11:37:36;1.05;;;0.65;;
22429;SDS011;11382;48.086;11.632;2024-03-23T11:40:19;2.15;;;0.80;;
22429;SDS011;11382;48.086;11.632;2024-03-23T11:42:46;1.95;;;0.63;;
22429;SDS011;11382;48.086;11.632;2024-03-23T11:45:14;1.50;;;0.80;;
22429;SDS011;11382;48.086;11.632;2024-03-23T11:47:44;2.22;;;0.90;;
22429;SDS011;11382;48.086;11.632;2024-03-23T11:50:18;0.70;;;0.70;;
22429;SDS011;11382;48.086;11.632;2024-03-23T11:52:45;1.85;;;0.73;;
22429;SDS011;11382;48.086;11.632;2024-03-23T11:55:14;2.08;;;0.80;;
22429;SDS011;11382;48.086;11.632;2024-03-23T11:57:42;1.70;;;0.90;;
22429;SDS011;11382;48.086;11.632;2024-03-23T12:02:59;2.38;;;1.00;;
22429;SDS011;11382;48.086;11.632;2024-03-23T12:05:26;2.15;;;1.10;;
22429;SDS011;11382;48.086;11.632;2024-03-23T12:07:53;1.42;;;0.70;;
22429;SDS011;11382;48.086;11.632;2024-03-23T12:10:19;2.75;;;1.10;;
22429;SDS011;11382;48.086;11.632;2024-03-23T12:12:51;1.38;;;1.25;;
22429;SDS011;11382;48.086;11.632;2024-03-23T12:15:26;1.75;;;1.10;;
22429;SDS011;11382;48.086;11.632;2024-03-23T12:18:05;2.05;;;1.25;;
22429;SDS011;11382;48.086;11.632;2024-03-23T12:20:32;1.23;;;0.88;;
22429;SDS011;11382;48.086;11.632;2024-03-23T12:23:06;3.30;;;1.25;;
22429;SDS011;11382;48.086;11.632;2024-03-23T12:25:34;1.95;;;1.35;;
22429;SDS011;11382;48.086;11.632;2024-03-23T12:28:01;3.25;;;1.55;;
22429;SDS011;11382;48.086;11.632;2024-03-23T12:30:29;3.38;;;1.50;;
22429;SDS011;11382;48.086;11.632;2024-03-23T12:32:56;2.50;;;1.55;;
22429;SDS011;11382;48.086;11.632;2024-03-23T12:35:22;3.25;;;1.70;;
22429;SDS011;11382;48.086;11.632;2024-03-23T12:37:49;2.40;;;1.40;;
22429;SDS011;11382;48.086;11.632;2024-03-23T12:40:16;2.92;;;1.65;;
22429;SDS011;11382;48.086;11.632;2024-03-23T12:42:43;3.03;;;1.40;;
22429;SDS011;11382;48.086;11.632;2024-03-23T12:45:09;4.82;;;1.58;;
22429;SDS011;11382;48.086;11.632;2024-03-23T12:47:37;2.45;;;1.70;;
22429;SDS011;11382;48.086;11.632;2024-03-23T12:50:04;7.05;;;1.92;;
22429;SDS011;11382;48.086;11.632;2024-03-23T12:52:32;2.75;;;1.77;;
22429;SDS011;11382;48.086;11.632;2024-03-23T12:54:59;3.80;;;2.38;;
22429;SDS011;11382;48.086;11.632;2024-03-23T12:57:26;4.22;;;2.08;;
22429;SDS011;11382;48.086;11.632;2024-03-23T12:59:53;5.38;;;1.67;;
22429;SDS011;11382;48.086;11.632;2024-03-23T13:02:20;4.72;;;1.90;;
22429;SDS011;11382;48.086;11.632;2024-03-23T13:04:50;4.20;;;2.20;;
22429;SDS011;11382;48.086;11.632;2024-03-23T13:07:18;3.15;;;1.75;;
22429;SDS011;11382;48.086;11.632;2024-03-23T13:09:45;3.85;;;2.22;;
22429;SDS011;11382;48.086;11.632;2024-03-23T13:12:13;2.65;;;1.80;;
22429;SDS011;11382;48.086;11.632;2024-03-23T13:14:39;3.70;;;1.95;;
22429;SDS011;11382;48.086;11.632;2024-03-23T13:17:06;4.55;;;2.00;;
22429;SDS011;11382;48.086;11.632;2024-03-23T13:19:33;3.00;;;1.70;;
22429;SDS011;11382;48.086;11.632;2024-03-23T13:22:01;2.30;;;1.50;;
22429;SDS011;11382;48.086;11.632;2024-03-23T13:24:28;6.85;;;2.05;;
22429;SDS011;11382;48.086;11.632;2024-03-23T13:26:56;3.80;;;1.75;;
22429;SDS011;11382;48.086;11.632;2024-03-23T13:29:23;2.90;;;1.70;;
22429;SDS011;11382;48.086;11.632;2024-03-23T13:31:51;6.00;;;1.73;;
22429;SDS011;11382;48.086;11.632;2024-03-23T13:34:17;3.42;;;1.90;;
22429;SDS011;11382;48.086;11.632;2024-03-23T13:36:45;4.97;;;1.70;;
22429;SDS011;11382;48.086;11.632;2024-03-23T13:39:13;4.13;;;1.75;;
22429;SDS011;11382;48.086;11.632;2024-03-23T13:41:41;4.85;;;1.90;;
22429;SDS011;11382;48.086;11.632;2024-03-23T13:44:08;3.33;;;1.65;;
22429;SDS011;11382;48.086;11.632;2024-03-23T13:46:36;3.03;;;1.83;;
22429;SDS011;11382;48.086;11.632;2024-03-23T13:49:03;4.13;;;2.22;;
22429;SDS011;11382;48.086;11.632;2024-03-23T13:51:30;4.07;;;1.85;;
22429;SDS011;11382;48.086;11.632;2024-03-23T13:53:57;3.47;;;1.95;;
22429;SDS011;11382;48.086;11.632;2024-03-23T13:56:27;3.03;;;1.70;;
22429;SDS011;11382;48.086;11.632;2024-03-23T13:58:54;3.42;;;1.83;;
22429;SDS011;11382;48.086;11.632;2024-03-23T14:01:21;3.42;;;1.65;;
22429;SDS011;11382;48.086;11.632;2024-03-23T14:03:48;3.75;;;2.00;;
22429;SDS011;11382;48.086;11.632;2024-03-23T14:06:15;5.60;;;2.10;;
22429;SDS011;11382;48.086;11.632;2024-03-23T14:08:41;3.42;;;1.50;;
22429;SDS011;11382;48.086;11.632;2024-03-23T14:11:08;4.07;;;2.00;;
22429;SDS011;11382;48.086;11.632;2024-03-23T14:13:37;5.95;;;3.05;;
22429;SDS011;11382;48.086;11.632;2024-03-23T14:16:05;7.57;;;3.15;;
22429;SDS011;11382;48.086;11.632;2024-03-23T14:18:32;3.78;;;1.95;;
22429;SDS011;11382;48.086;11.632;2024-03-23T14:20:59;3.22;;;2.17;;
22429;SDS011;11382;48.086;11.632;2024-03-23T14:23:26;3.90;;;1.95;;
22429;SDS011;11382;48.086;11.632;2024-03-23T14:25:54;4.25;;;2.08;;
22429;SDS011;11382;48.086;11.632;2024-03-23T14:28:21;6.88;;;2.67;;
22429;SDS011;11382;48.086;11.632;2024-03-23T14:30:50;5.45;;;2.30;;
22429;SDS011;11382;48.086;11.632;2024-03-23T14:33:17;9.55;;;2.92;;
22429;SDS011;11382;48.086;11.632;2024-03-23T14:35:51;5.10;;;2.15;;
22429;SDS011;11382;48.086;11.632;2024-03-23T14:38:17;7.53;;;3.00;;
22429;SDS011;11382;48.086;11.632;2024-03-23T14:40:45;6.85;;;3.20;;
22429;SDS011;11382;48.086;11.632;2024-03-23T14:43:11;6.05;;;3.25;;
22429;SDS011;11382;48.086;11.632;2024-03-23T14:45:45;8.20;;;2.80;;
22429;SDS011;11382;48.086;11.632;2024-03-23T14:48:32;9.40;;;3.08;;
22429;SDS011;11382;48.086;11.632;2024-03-23T14:51:00;3.95;;;2.17;;
22429;SDS011;11382;48.086;11.632;2024-03-23T14:53:26;7.55;;;2.35;;
22429;SDS011;11382;48.086;11.632;2024-03-23T14:55:55;5.38;;;2.15;;
22429;SDS011;11382;48.086;11.632;2024-03-23T14:58:21;5.32;;;2.50;;
22429;SDS011;11382;48.086;11.632;2024-03-23T15:00:49;6.93;;;2.60;;
22429;SDS011;11382;48.086;11.632;2024-03-23T15:03:17;7.25;;;2.20;;
22429;SDS011;11382;48.086;11.632;2024-03-23T15:05:52;2.50;;;1.67;;
22429;SDS011;11382;48.086;11.632;2024-03-23T15:08:19;5.10;;;2.13;;
22429;SDS011;11382;48.086;11.632;2024-03-23T15:10:46;5.20;;;1.90;;
22429;SDS011;11382;48.086;11.632;2024-03-23T15:13:12;6.88;;;2.13;;
22429;SDS011;11382;48.086;11.632;2024-03-23T15:15:40;7.40;;;2.83;;
22429;SDS011;11382;48.086;11.632;2024-03-23T15:18:09;6.75;;;2.13;;
22429;SDS011;11382;48.086;11.632;2024-03-23T15:20:38;5.00;;;1.98;;
22429;SDS011;11382;48.086;11.632;2024-03-23T15:23:05;3.45;;;1.80;;
22429;SDS011;11382;48.086;11.632;2024-03-23T15:25:33;6.07;;;2.58;;
22429;SDS011;11382;48.086;11.632;2024-03-23T15:27:59;5.70;;;2.30;;
22429;SDS011;11382;48.086;11.632;2024-03-23T15:30:27;4.57;;;2.08;;
22429;SDS011;11382;48.086;11.632;2024-03-23T15:32:53;3.67;;;2.10;;
22429;SDS011;11382;48.086;11.632;2024-03-23T15:35:20;4.03;;;2.38;;